Time;durP1;ratioP1;P1;durP2;ratioP2;P2;SDS_P1;SDS_P2;PMS_P1;PMS_P2;Temp;Humidity;BMP_temperature;BMP_pressure;BME280_temperature;BME280_humidity;BME280_pressure;Samples;Min_cycle;Max_cycle;Signal;HPM_P1;HPM_P2
2023/06/21 00:01:30;;;;;;;9.90;5.45;;;;;;;;;;5034941;28;20235;-35
2023/06/21 00:03:59;;;;;;;9.23;5.88;;;;;;;;;;5022123;28;20214;-34
2023/06/21 00:06:28;;;;;;;8.98;5.97;;;;;;;;;;5024069;28;20205;-37
2023/06/21 00:08:56;;;;;;;8.45;5.82;;;;;;;;;;5024199;28;20269;-40
2023/06/21 00:11:23;;;;;;;11.30;6.45;;;;;;;;;;5025324;28;20210;-37
2023/06/21 00:13:54;;;;;;;9.10;6.40;;;;;;;;;;5012227;28;20233;-34
2023/06/21 00:16:21;;;;;;;8.13;6.10;;;;;;;;;;5012568;28;20210;-43
2023/06/21 00:18:48;;;;;;;7.20;5.68;;;;;;;;;;5014012;28;20230;-37
2023/06/21 00:21:15;;;;;;;7.57;5.35;;;;;;;;;;5025307;28;20231;-36
2023/06/21 00:23:43;;;;;;;6.95;5.40;;;;;;;;;;5016030;28;20221;-40
2023/06/21 00:26:10;;;;;;;8.98;6.28;;;;;;;;;;5031194;28;20206;-37
2023/06/21 00:28:38;;;;;;;8.85;5.95;;;;;;;;;;5031446;28;20219;-40
2023/06/21 00:31:09;;;;;;;5.65;4.80;;;;;;;;;;5031817;28;20230;-40
2023/06/21 00:33:37;;;;;;;8.75;5.93;;;;;;;;;;5022344;28;20202;-37
2023/06/21 00:36:04;;;;;;;7.35;5.72;;;;;;;;;;5030365;28;20279;-38
2023/06/21 00:38:34;;;;;;;7.68;6.25;;;;;;;;;;5021511;28;20234;-37
2023/06/21 00:41:02;;;;;;;10.57;6.13;;;;;;;;;;5025312;28;20228;-33
2023/06/21 00:43:29;;;;;;;10.43;6.43;;;;;;;;;;5019576;28;20202;-41
2023/06/21 00:45:57;;;;;;;7.35;5.25;;;;;;;;;;5012078;28;20213;-39
2023/06/21 00:48:28;;;;;;;9.93;6.10;;;;;;;;;;5014950;28;20248;-39
2023/06/21 00:50:55;;;;;;;7.53;5.90;;;;;;;;;;5028144;28;20202;-39
2023/06/21 00:53:23;;;;;;;9.27;5.93;;;;;;;;;;5011801;28;20207;-41
2023/06/21 00:55:50;;;;;;;7.40;5.68;;;;;;;;;;5028362;28;20751;-35
2023/06/21 00:58:20;;;;;;;9.75;5.90;;;;;;;;;;5025323;28;20201;-37
2023/06/21 01:00:47;;;;;;;9.10;6.28;;;;;;;;;;5010986;28;20505;-33
2023/06/21 01:03:14;;;;;;;7.68;5.47;;;;;;;;;;5017201;28;20205;-37
2023/06/21 01:05:43;;;;;;;8.63;5.38;;;;;;;;;;5022312;28;20205;-34
2023/06/21 01:08:16;;;;;;;8.73;5.65;;;;;;;;;;5025782;28;20209;-38
2023/06/21 01:10:47;;;;;;;6.93;5.80;;;;;;;;;;5010514;28;20241;-43
2023/06/21 01:13:21;;;;;;;8.88;5.75;;;;;;;;;;5010761;28;20207;-39
2023/06/21 01:15:49;;;;;;;11.52;5.75;;;;;;;;;;5011539;28;20302;-36
2023/06/21 01:18:17;;;;;;;6.85;5.60;;;;;;;;;;5015709;28;20202;-42
2023/06/21 01:20:51;;;;;;;6.63;5.63;;;;;;;;;;5021185;28;20215;-38
2023/06/21 01:23:24;;;;;;;6.03;5.47;;;;;;;;;;5008406;28;20201;-40
2023/06/21 01:25:59;;;;;;;9.85;6.00;;;;;;;;;;5012089;28;20206;-39
2023/06/21 01:28:44;;;;;;;9.27;5.57;;;;;;;;;;5015943;28;20225;-39
2023/06/21 01:31:15;;;;;;;8.73;5.88;;;;;;;;;;5011302;28;20197;-33
2023/06/21 01:33:43;;;;;;;11.57;6.47;;;;;;;;;;5026992;28;20258;-37
2023/06/21 01:36:10;;;;;;;7.35;5.82;;;;;;;;;;5012964;28;20203;-39
2023/06/21 01:38:37;;;;;;;7.93;5.13;;;;;;;;;;5013579;28;20224;-39
2023/06/21 01:41:06;;;;;;;10.35;5.93;;;;;;;;;;5012067;28;20224;-43
2023/06/21 01:43:33;;;;;;;8.35;5.80;;;;;;;;;;5027218;28;20236;-40
2023/06/21 01:46:02;;;;;;;6.70;5.28;;;;;;;;;;5032120;28;20274;-41
2023/06/21 01:48:33;;;;;;;8.13;5.47;;;;;;;;;;5012163;28;20240;-38
2023/06/21 01:51:01;;;;;;;12.50;5.47;;;;;;;;;;5016398;28;20294;-37
2023/06/21 01:53:28;;;;;;;13.43;6.20;;;;;;;;;;5024820;28;20213;-37
2023/06/21 01:55:57;;;;;;;5.63;5.13;;;;;;;;;;5015301;28;20292;-36
2023/06/21 01:58:24;;;;;;;7.30;4.97;;;;;;;;;;5014864;28;20217;-42
2023/06/21 02:00:51;;;;;;;7.15;6.10;;;;;;;;;;5011137;28;20214;-38
2023/06/21 02:03:20;;;;;;;8.93;5.88;;;;;;;;;;5015445;28;20204;-40
2023/06/21 02:08:25;;;;;;;10.02;5.68;;;;;;;;;;5054097;23;20227;-22
2023/06/21 02:10:52;;;;;;;5.95;5.38;;;;;;;;;;5037632;28;20211;-25
2023/06/21 02:13:19;;;;;;;9.80;5.15;;;;;;;;;;5040448;28;20668;-29
2023/06/21 02:15:47;;;;;;;8.20;5.43;;;;;;;;;;5032516;28;20561;-27
2023/06/21 02:18:14;;;;;;;7.40;5.50;;;;;;;;;;5030344;28;20203;-24
2023/06/21 02:20:42;;;;;;;8.80;5.00;;;;;;;;;;5032508;28;20208;-30
2023/06/21 02:23:09;;;;;;;7.45;5.28;;;;;;;;;;5041004;28;20225;-24
2023/06/21 02:25:38;;;;;;;10.18;5.50;;;;;;;;;;5043279;28;20233;-25
2023/06/21 02:28:05;;;;;;;8.40;5.15;;;;;;;;;;5032308;28;20204;-25
2023/06/21 02:30:32;;;;;;;6.10;5.10;;;;;;;;;;5032588;28;20298;-26
2023/06/21 02:32:59;;;;;;;9.20;5.53;;;;;;;;;;5044625;28;20574;-26
2023/06/21 02:35:27;;;;;;;6.63;4.97;;;;;;;;;;5046820;28;20208;-25
2023/06/21 02:37:55;;;;;;;9.25;5.72;;;;;;;;;;5049223;28;20211;-24
2023/06/21 02:40:22;;;;;;;8.18;5.18;;;;;;;;;;5032048;28;20226;-24
2023/06/21 02:42:51;;;;;;;7.88;5.57;;;;;;;;;;5040521;28;20230;-26
2023/06/21 02:45:18;;;;;;;9.32;5.57;;;;;;;;;;5032709;28;20206;-26
2023/06/21 02:47:46;;;;;;;8.80;6.45;;;;;;;;;;5034179;28;20209;-28
2023/06/21 02:50:15;;;;;;;6.38;5.00;;;;;;;;;;5032221;28;20224;-28
2023/06/21 02:52:42;;;;;;;6.00;4.90;;;;;;;;;;5033507;28;20611;-26
2023/06/21 02:55:09;;;;;;;5.93;5.20;;;;;;;;;;5041363;28;20207;-25
2023/06/21 02:57:37;;;;;;;8.10;4.75;;;;;;;;;;5048704;28;20204;-29
2023/06/21 03:00:17;;;;;;;5.30;4.72;;;;;;;;;;5049573;28;20233;-29
2023/06/21 03:02:44;;;;;;;10.63;5.47;;;;;;;;;;5044888;28;20312;-27
2023/06/21 03:05:12;;;;;;;7.75;5.15;;;;;;;;;;5037629;28;20286;-26
2023/06/21 03:07:43;;;;;;;7.95;4.60;;;;;;;;;;5042804;28;20497;-29
2023/06/21 03:10:11;;;;;;;5.28;4.78;;;;;;;;;;5035725;28;20582;-25
2023/06/21 03:12:39;;;;;;;8.45;4.35;;;;;;;;;;5029190;28;20207;-25
2023/06/21 03:15:08;;;;;;;8.82;5.25;;;;;;;;;;5049264;28;20207;-26
2023/06/21 03:17:35;;;;;;;7.07;4.70;;;;;;;;;;5039985;28;20476;-27
2023/06/21 03:20:04;;;;;;;6.82;5.03;;;;;;;;;;5045009;28;20279;-26
2023/06/21 03:22:32;;;;;;;7.80;5.35;;;;;;;;;;5032968;28;20269;-29
2023/06/21 03:24:59;;;;;;;9.98;5.53;;;;;;;;;;5029327;28;20266;-28
2023/06/21 03:27:27;;;;;;;8.32;4.93;;;;;;;;;;5041843;28;20199;-27
2023/06/21 03:29:54;;;;;;;5.97;5.10;;;;;;;;;;5030760;28;20308;-27
2023/06/21 03:32:23;;;;;;;8.45;4.95;;;;;;;;;;5036781;28;20204;-25
2023/06/21 03:34:50;;;;;;;8.27;5.70;;;;;;;;;;5042759;28;20208;-25
2023/06/21 03:37:17;;;;;;;5.65;4.95;;;;;;;;;;5037555;28;20236;-27
2023/06/21 03:39:44;;;;;;;9.23;5.38;;;;;;;;;;5033059;28;20223;-25
2023/06/21 03:42:12;;;;;;;5.75;5.18;;;;;;;;;;5031191;28;20226;-24
2023/06/21 03:44:39;;;;;;;5.63;5.00;;;;;;;;;;5031859;28;20261;-26
2023/06/21 03:47:07;;;;;;;10.63;6.25;;;;;;;;;;5042262;28;20293;-29
2023/06/21 03:49:36;;;;;;;5.88;5.22;;;;;;;;;;5045974;28;20234;-26
2023/06/21 03:52:03;;;;;;;7.80;5.38;;;;;;;;;;5035019;28;20201;-26
2023/06/21 03:54:31;;;;;;;9.32;6.35;;;;;;;;;;5045414;28;20207;-23
2023/06/21 03:56:58;;;;;;;8.52;6.25;;;;;;;;;;5048630;28;20204;-24
2023/06/21 03:59:25;;;;;;;11.35;6.15;;;;;;;;;;5039697;28;20233;-26
2023/06/21 04:01:54;;;;;;;12.50;6.30;;;;;;;;;;5044123;28;20227;-26
2023/06/21 04:04:24;;;;;;;11.00;6.00;;;;;;;;;;5042571;28;20194;-27
2023/06/21 04:06:53;;;;;;;9.00;6.20;;;;;;;;;;5040090;28;20715;-26
2023/06/21 04:09:20;;;;;;;9.10;6.25;;;;;;;;;;5042846;28;20318;-25
2023/06/21 04:11:47;;;;;;;9.75;5.63;;;;;;;;;;5044194;28;20203;-26
2023/06/21 04:14:16;;;;;;;7.85;5.72;;;;;;;;;;5041108;28;20199;-25
2023/06/21 04:16:43;;;;;;;6.45;5.72;;;;;;;;;;5051561;28;20252;-26
2023/06/21 04:19:11;;;;;;;7.20;5.78;;;;;;;;;;5049011;28;20233;-25
2023/06/21 04:21:38;;;;;;;9.63;6.28;;;;;;;;;;5054201;28;20289;-25
2023/06/21 04:24:06;;;;;;;10.45;6.35;;;;;;;;;;5046019;28;20204;-26
2023/06/21 04:26:34;;;;;;;6.35;5.60;;;;;;;;;;5048466;28;20568;-27
2023/06/21 04:29:01;;;;;;;11.05;7.40;;;;;;;;;;5042666;28;20632;-27
2023/06/21 04:31:29;;;;;;;9.07;5.95;;;;;;;;;;5035537;28;20730;-27
2023/06/21 04:33:56;;;;;;;11.10;5.95;;;;;;;;;;5039421;28;20254;-26
2023/06/21 04:36:24;;;;;;;14.10;7.03;;;;;;;;;;5049917;28;20301;-25
2023/06/21 04:38:51;;;;;;;11.55;7.78;;;;;;;;;;5043115;28;20246;-26
2023/06/21 04:41:21;;;;;;;9.13;5.20;;;;;;;;;;5046569;28;20214;-26
2023/06/21 04:43:48;;;;;;;7.43;5.60;;;;;;;;;;5053459;28;20234;-25
2023/06/21 04:46:17;;;;;;;8.63;6.60;;;;;;;;;;5054035;28;20203;-27
2023/06/21 04:48:46;;;;;;;8.00;6.93;;;;;;;;;;5045769;28;20237;-23
2023/06/21 04:51:15;;;;;;;12.02;6.95;;;;;;;;;;5042720;28;20230;-24
2023/06/21 04:53:42;;;;;;;8.77;6.53;;;;;;;;;;5036197;28;20209;-24
2023/06/21 04:56:11;;;;;;;8.02;6.43;;;;;;;;;;5043054;28;20213;-26
2023/06/21 04:58:39;;;;;;;8.95;6.75;;;;;;;;;;5042612;28;20225;-26
2023/06/21 05:01:07;;;;;;;10.00;6.70;;;;;;;;;;5030159;28;20211;-26
2023/06/21 05:03:34;;;;;;;8.23;6.45;;;;;;;;;;5037110;28;20218;-25
2023/06/21 05:06:01;;;;;;;10.85;6.53;;;;;;;;;;5039138;28;20199;-27
2023/06/21 05:08:28;;;;;;;9.27;6.97;;;;;;;;;;5034533;28;20233;-26
2023/06/21 05:10:55;;;;;;;9.10;6.45;;;;;;;;;;5043398;28;20210;-27
2023/06/21 05:13:22;;;;;;;10.07;7.55;;;;;;;;;;5040018;28;20668;-26
2023/06/21 05:15:51;;;;;;;8.45;6.28;;;;;;;;;;5032429;28;20207;-25
2023/06/21 05:18:18;;;;;;;8.38;5.85;;;;;;;;;;5037596;28;20199;-27
2023/06/21 05:20:45;;;;;;;7.53;6.72;;;;;;;;;;5032836;28;20205;-27
2023/06/21 05:23:12;;;;;;;13.05;7.80;;;;;;;;;;5035797;28;20705;-23
2023/06/21 05:25:40;;;;;;;11.48;7.88;;;;;;;;;;5033104;28;20206;-26
2023/06/21 05:28:07;;;;;;;8.85;6.72;;;;;;;;;;5032843;28;20201;-26
2023/06/21 05:30:34;;;;;;;10.35;7.20;;;;;;;;;;5031861;28;20239;-27
2023/06/21 05:33:02;;;;;;;7.75;6.07;;;;;;;;;;5037023;28;20200;-26
2023/06/21 05:35:29;;;;;;;9.00;6.43;;;;;;;;;;5047310;28;20209;-26
2023/06/21 05:37:56;;;;;;;7.97;6.30;;;;;;;;;;5049724;28;20202;-26
2023/06/21 05:40:24;;;;;;;9.77;6.72;;;;;;;;;;5038351;28;20208;-24
2023/06/21 05:42:51;;;;;;;11.82;6.78;;;;;;;;;;5041299;28;20310;-25
2023/06/21 05:45:20;;;;;;;11.35;7.10;;;;;;;;;;5033582;28;20210;-26
2023/06/21 05:47:47;;;;;;;13.45;7.13;;;;;;;;;;5031796;28;20211;-25
2023/06/21 05:50:15;;;;;;;9.07;6.22;;;;;;;;;;5049381;28;20218;-26
2023/06/21 05:52:42;;;;;;;8.85;6.93;;;;;;;;;;5050082;28;20210;-25
2023/06/21 05:55:10;;;;;;;10.23;7.07;;;;;;;;;;5035659;28;20551;-25
2023/06/21 05:57:37;;;;;;;11.25;7.72;;;;;;;;;;5032373;28;20207;-26
2023/06/21 06:00:08;;;;;;;11.88;7.63;;;;;;;;;;5052729;28;20234;-25
2023/06/21 06:02:35;;;;;;;13.63;7.57;;;;;;;;;;5035249;28;20254;-24
2023/06/21 06:05:03;;;;;;;11.45;8.27;;;;;;;;;;5032587;28;20282;-25
2023/06/21 06:07:32;;;;;;;10.98;8.93;;;;;;;;;;5032501;28;20242;-24
2023/06/21 06:09:59;;;;;;;14.02;8.18;;;;;;;;;;5047005;28;20234;-25
2023/06/21 06:12:27;;;;;;;10.68;8.55;;;;;;;;;;5052384;28;20221;-23
2023/06/21 06:14:54;;;;;;;12.63;8.25;;;;;;;;;;5033753;28;20202;-24
2023/06/21 06:17:21;;;;;;;10.75;8.23;;;;;;;;;;5031401;28;20207;-24
2023/06/21 06:19:48;;;;;;;13.07;8.82;;;;;;;;;;5040471;28;20227;-23
2023/06/21 06:22:15;;;;;;;11.75;8.60;;;;;;;;;;5033881;28;20211;-28
2023/06/21 06:24:45;;;;;;;15.88;8.68;;;;;;;;;;5032088;28;20227;-27
2023/06/21 06:27:12;;;;;;;13.90;9.07;;;;;;;;;;5039278;28;20690;-25
2023/06/21 06:29:39;;;;;;;12.70;8.73;;;;;;;;;;5049010;28;20226;-26
2023/06/21 06:32:06;;;;;;;13.60;8.50;;;;;;;;;;5045216;28;20208;-26
2023/06/21 06:34:34;;;;;;;13.43;7.63;;;;;;;;;;5040101;28;20736;-28
2023/06/21 06:37:01;;;;;;;12.88;9.60;;;;;;;;;;5040504;28;20292;-26
2023/06/21 06:39:28;;;;;;;14.23;9.45;;;;;;;;;;5034056;28;20223;-26
2023/06/21 06:41:56;;;;;;;10.90;7.65;;;;;;;;;;5048632;28;20207;-26
2023/06/21 06:44:24;;;;;;;12.30;8.10;;;;;;;;;;5032617;28;20243;-25
2023/06/21 06:46:51;;;;;;;11.30;8.90;;;;;;;;;;5033479;28;20213;-24
2023/06/21 06:49:18;;;;;;;10.73;8.88;;;;;;;;;;5038003;28;20688;-24
2023/06/21 06:51:45;;;;;;;12.23;8.85;;;;;;;;;;5040538;28;20208;-26
2023/06/21 06:54:12;;;;;;;12.25;8.35;;;;;;;;;;5036668;28;20291;-26
2023/06/21 06:56:39;;;;;;;13.50;7.85;;;;;;;;;;5049596;28;20213;-27
2023/06/21 06:59:08;;;;;;;10.05;7.53;;;;;;;;;;5031942;28;20236;-24
2023/06/21 07:01:35;;;;;;;9.43;7.72;;;;;;;;;;5032440;28;20214;-24
2023/06/21 07:04:02;;;;;;;12.65;7.50;;;;;;;;;;5037434;28;20228;-25
2023/06/21 07:06:29;;;;;;;9.90;7.40;;;;;;;;;;5046947;28;20206;-23
2023/06/21 07:08:56;;;;;;;11.82;7.63;;;;;;;;;;5031081;28;20226;-24
2023/06/21 07:11:23;;;;;;;9.50;7.68;;;;;;;;;;5045455;28;20538;-24
2023/06/21 07:13:50;;;;;;;9.38;7.65;;;;;;;;;;5051618;28;20701;-25
2023/06/21 07:16:20;;;;;;;12.70;7.60;;;;;;;;;;5041565;28;20207;-29
2023/06/21 07:18:47;;;;;;;12.45;8.60;;;;;;;;;;5049115;28;20704;-27
2023/06/21 07:21:17;;;;;;;13.90;7.57;;;;;;;;;;5053438;28;20205;-27
2023/06/21 07:23:44;;;;;;;9.60;7.70;;;;;;;;;;5046858;28;20242;-23
2023/06/21 07:26:11;;;;;;;8.95;6.30;;;;;;;;;;5035566;28;20194;-25
2023/06/21 07:28:38;;;;;;;14.82;7.20;;;;;;;;;;5035851;28;20218;-25
2023/06/21 07:31:05;;;;;;;11.27;7.57;;;;;;;;;;5036098;28;20198;-24
2023/06/21 07:33:34;;;;;;;11.43;6.75;;;;;;;;;;5038948;28;20205;-26
2023/06/21 07:36:01;;;;;;;9.90;6.82;;;;;;;;;;5035407;28;20746;-27
2023/06/21 07:38:28;;;;;;;11.10;6.55;;;;;;;;;;5037902;28;20236;-27
2023/06/21 07:40:55;;;;;;;7.40;6.47;;;;;;;;;;5051564;28;20209;-25
2023/06/21 07:43:22;;;;;;;7.43;6.45;;;;;;;;;;5041304;28;20269;-25
2023/06/21 07:45:49;;;;;;;8.55;6.15;;;;;;;;;;5035583;28;20572;-27
2023/06/21 07:48:16;;;;;;;7.10;6.10;;;;;;;;;;5040569;28;20201;-25
2023/06/21 07:50:45;;;;;;;8.80;5.72;;;;;;;;;;5033921;28;20217;-27
2023/06/21 07:53:12;;;;;;;6.07;5.47;;;;;;;;;;5032125;28;20194;-28
2023/06/21 07:55:39;;;;;;;9.85;6.10;;;;;;;;;;5044762;28;20210;-27
2023/06/21 07:58:08;;;;;;;6.93;5.28;;;;;;;;;;5046760;28;20194;-25
2023/06/21 08:00:35;;;;;;;4.43;3.95;;;;;;;;;;5054983;28;20206;-28
2023/06/21 08:03:02;;;;;;;10.00;4.30;;;;;;;;;;5040844;28;20224;-24
2023/06/21 08:05:29;;;;;;;5.57;4.18;;;;;;;;;;5044669;28;20229;-27
2023/06/21 08:08:01;;;;;;;5.65;4.15;;;;;;;;;;5131285;23;20236;-25
2023/06/21 08:10:28;;;;;;;5.20;4.35;;;;;;;;;;5031075;28;20248;-24
2023/06/21 08:12:55;;;;;;;7.32;3.72;;;;;;;;;;5021271;28;20213;-27
2023/06/21 08:15:23;;;;;;;6.13;3.80;;;;;;;;;;5012925;28;20203;-25
2023/06/21 08:17:51;;;;;;;5.93;4.07;;;;;;;;;;5011909;28;20207;-27
2023/06/21 08:20:18;;;;;;;4.72;4.18;;;;;;;;;;5028837;28;20624;-26
2023/06/21 08:22:46;;;;;;;9.55;5.00;;;;;;;;;;5018521;28;20202;-26
2023/06/21 08:25:14;;;;;;;6.40;4.35;;;;;;;;;;5028657;28;20199;-26
2023/06/21 08:27:41;;;;;;;8.55;5.18;;;;;;;;;;5023542;28;20199;-27
2023/06/21 08:30:09;;;;;;;6.68;4.00;;;;;;;;;;5033104;28;20511;-28
2023/06/21 08:32:39;;;;;;;5.22;3.80;;;;;;;;;;5030032;28;20206;-25
2023/06/21 08:35:07;;;;;;;7.35;4.65;;;;;;;;;;5026513;28;20209;-27
2023/06/21 08:37:34;;;;;;;8.65;4.70;;;;;;;;;;5033157;28;20352;-26
2023/06/21 08:40:01;;;;;;;7.47;4.43;;;;;;;;;;5028666;28;20222;-24
2023/06/21 08:42:30;;;;;;;6.40;4.72;;;;;;;;;;5016587;28;20191;-25
2023/06/21 08:44:57;;;;;;;6.25;4.97;;;;;;;;;;5031282;28;20242;-26
2023/06/21 08:47:28;;;;;;;6.32;4.65;;;;;;;;;;5027410;28;20219;-27
2023/06/21 08:49:58;;;;;;;5.50;4.25;;;;;;;;;;5020446;28;20283;-27
2023/06/21 08:52:26;;;;;;;6.57;4.57;;;;;;;;;;5012334;28;20208;-26
2023/06/21 08:54:59;;;;;;;5.43;4.93;;;;;;;;;;5024995;28;20613;-27
2023/06/21 08:57:26;;;;;;;5.80;4.75;;;;;;;;;;5023013;28;20193;-25
2023/06/21 08:59:58;;;;;;;8.00;5.10;;;;;;;;;;5031411;28;20227;-25
2023/06/21 09:02:32;;;;;;;5.75;4.90;;;;;;;;;;5028542;28;20233;-25
2023/06/21 09:05:01;;;;;;;7.30;5.10;;;;;;;;;;5020112;28;20232;-26
2023/06/21 09:07:28;;;;;;;15.18;5.18;;;;;;;;;;5012192;28;20660;-26
2023/06/21 09:09:56;;;;;;;15.48;5.50;;;;;;;;;;5028022;28;20243;-27
2023/06/21 09:12:24;;;;;;;14.07;5.97;;;;;;;;;;5022717;28;20563;-27
2023/06/21 09:14:52;;;;;;;9.02;5.25;;;;;;;;;;5030702;28;20264;-24
2023/06/21 09:17:20;;;;;;;11.20;5.85;;;;;;;;;;5031307;28;20259;-26
2023/06/21 09:19:48;;;;;;;12.52;5.97;;;;;;;;;;5027502;28;20225;-24
2023/06/21 09:22:15;;;;;;;9.05;5.97;;;;;;;;;;5019537;28;20698;-25
2023/06/21 09:24:44;;;;;;;12.95;5.60;;;;;;;;;;5024833;28;20226;-26
2023/06/21 09:27:11;;;;;;;16.17;7.40;;;;;;;;;;5027329;28;20201;-24
2023/06/21 09:29:38;;;;;;;10.07;5.88;;;;;;;;;;5023787;28;20222;-24
2023/06/21 09:32:06;;;;;;;6.60;5.13;;;;;;;;;;5012288;28;20217;-30
2023/06/21 09:34:34;;;;;;;11.10;5.32;;;;;;;;;;5026816;28;20223;-24
2023/06/21 09:37:01;;;;;;;12.82;5.80;;;;;;;;;;5022955;28;20203;-24
2023/06/21 09:39:28;;;;;;;15.48;6.55;;;;;;;;;;5027974;28;20224;-32
2023/06/21 09:41:56;;;;;;;9.75;5.53;;;;;;;;;;5023169;28;20204;-29
2023/06/21 09:44:23;;;;;;;9.15;5.80;;;;;;;;;;5030251;28;20221;-33
2023/06/21 09:46:50;;;;;;;11.32;5.78;;;;;;;;;;5029359;28;20205;-36
2023/06/21 09:49:18;;;;;;;9.48;6.55;;;;;;;;;;5027776;28;20358;-31
2023/06/21 09:51:47;;;;;;;11.35;6.28;;;;;;;;;;5017749;28;20205;-27
2023/06/21 09:54:14;;;;;;;7.55;6.00;;;;;;;;;;5022170;28;20212;-31
2023/06/21 09:56:41;;;;;;;14.73;6.38;;;;;;;;;;5021321;28;20235;-31
2023/06/21 09:59:14;;;;;;;7.53;5.60;;;;;;;;;;5023250;28;20224;-31
2023/06/21 10:01:44;;;;;;;9.13;6.38;;;;;;;;;;5028278;28;20212;-30
2023/06/21 10:04:12;;;;;;;13.60;6.32;;;;;;;;;;5021272;28;20220;-34
2023/06/21 10:06:39;;;;;;;8.48;5.95;;;;;;;;;;5021340;28;20222;-31
2023/06/21 10:09:11;;;;;;;14.25;7.43;;;;;;;;;;5019623;28;20593;-28
2023/06/21 10:11:38;;;;;;;9.23;7.15;;;;;;;;;;5022232;28;20205;-33
2023/06/21 10:14:06;;;;;;;12.63;6.32;;;;;;;;;;5023255;28;20202;-32
2023/06/21 10:16:35;;;;;;;8.13;6.07;;;;;;;;;;5029905;28;20211;-32
2023/06/21 10:19:03;;;;;;;11.43;6.20;;;;;;;;;;5019714;28;20227;-28
2023/06/21 10:21:31;;;;;;;7.70;5.85;;;;;;;;;;5026097;28;20199;-27
2023/06/21 10:23:58;;;;;;;9.02;6.15;;;;;;;;;;5024323;28;20220;-28
2023/06/21 10:26:28;;;;;;;9.15;5.93;;;;;;;;;;5023701;28;20203;-34
2023/06/21 10:28:57;;;;;;;7.68;5.43;;;;;;;;;;5018828;28;20224;-31
2023/06/21 10:31:25;;;;;;;6.30;5.10;;;;;;;;;;5014156;28;20671;-32
2023/06/21 10:33:55;;;;;;;8.48;4.60;;;;;;;;;;5028817;28;20215;-29
2023/06/21 10:36:26;;;;;;;5.75;4.40;;;;;;;;;;5023415;28;20291;-31
2023/06/21 10:38:57;;;;;;;6.65;4.07;;;;;;;;;;5028460;28;20446;-34
2023/06/21 10:41:27;;;;;;;7.22;4.70;;;;;;;;;;5023428;28;20207;-29
2023/06/21 10:43:54;;;;;;;12.50;4.72;;;;;;;;;;5020351;28;20223;-30
2023/06/21 10:46:22;;;;;;;7.13;4.03;;;;;;;;;;5029652;28;20212;-30
2023/06/21 10:48:50;;;;;;;7.28;3.83;;;;;;;;;;5026772;28;20259;-30
2023/06/21 10:51:18;;;;;;;8.18;4.22;;;;;;;;;;5023923;28;20440;-30
2023/06/21 10:53:46;;;;;;;8.13;4.07;;;;;;;;;;5015776;28;20219;-29
2023/06/21 10:56:16;;;;;;;7.03;3.88;;;;;;;;;;5032600;28;20215;-38
2023/06/21 10:58:44;;;;;;;5.63;3.67;;;;;;;;;;5027284;28;20312;-34
2023/06/21 11:01:13;;;;;;;4.93;3.78;;;;;;;;;;5034586;28;20215;-35
2023/06/21 11:03:40;;;;;;;7.85;4.15;;;;;;;;;;5034698;28;20210;-36
2023/06/21 11:06:24;;;;;;;7.18;4.10;;;;;;;;;;5023258;28;20199;-33
2023/06/21 11:08:51;;;;;;;9.25;3.80;;;;;;;;;;5023341;28;20230;-32
2023/06/21 11:11:28;;;;;;;7.20;3.83;;;;;;;;;;5028155;28;20204;-30
2023/06/21 11:13:57;;;;;;;5.80;3.75;;;;;;;;;;5024294;28;20568;-34
2023/06/21 11:16:26;;;;;;;7.22;4.32;;;;;;;;;;5016038;28;20203;-34
2023/06/21 11:18:56;;;;;;;6.82;3.80;;;;;;;;;;5028744;28;20228;-27
2023/06/21 11:21:40;;;;;;;4.93;3.50;;;;;;;;;;5021189;28;20240;-34
2023/06/21 11:24:08;;;;;;;4.70;3.40;;;;;;;;;;5024420;28;20325;-31
2023/06/21 11:26:55;;;;;;;5.55;3.15;;;;;;;;;;5036011;28;20211;-34
2023/06/21 11:29:27;;;;;;;5.97;3.90;;;;;;;;;;5030091;28;20251;-32
2023/06/21 11:32:08;;;;;;;6.65;3.70;;;;;;;;;;5035908;28;20209;-32
2023/06/21 11:34:35;;;;;;;8.32;4.30;;;;;;;;;;5034440;28;20210;-32
2023/06/21 11:37:17;;;;;;;5.05;3.75;;;;;;;;;;5024269;28;20206;-35
2023/06/21 11:39:46;;;;;;;7.90;4.43;;;;;;;;;;5028581;28;20713;-37
2023/06/21 11:42:17;;;;;;;7.15;4.07;;;;;;;;;;5027240;28;20228;-35
2023/06/21 11:44:45;;;;;;;6.68;4.50;;;;;;;;;;5015094;28;20232;-36
2023/06/21 11:47:16;;;;;;;6.18;4.53;;;;;;;;;;5029844;28;20212;-32
2023/06/21 11:49:51;;;;;;;5.80;3.83;;;;;;;;;;5031054;28;20229;-37
2023/06/21 11:52:23;;;;;;;8.40;4.50;;;;;;;;;;5032536;28;20213;-30
2023/06/21 11:54:50;;;;;;;6.70;4.28;;;;;;;;;;5029604;28;20273;-34
2023/06/21 11:57:18;;;;;;;6.55;4.82;;;;;;;;;;5017649;28;20201;-32
2023/06/21 11:59:46;;;;;;;8.05;4.80;;;;;;;;;;5023995;28;20237;-30
2023/06/21 12:02:14;;;;;;;6.97;4.60;;;;;;;;;;5025139;28;20218;-32
2023/06/21 12:04:55;;;;;;;6.72;5.28;;;;;;;;;;5014689;28;20295;-32
2023/06/21 12:07:22;;;;;;;6.68;4.60;;;;;;;;;;5012060;28;20209;-32
2023/06/21 12:09:50;;;;;;;6.70;4.90;;;;;;;;;;5025509;28;20312;-31
2023/06/21 12:12:17;;;;;;;9.90;5.35;;;;;;;;;;5029273;28;20247;-36
2023/06/21 12:14:45;;;;;;;7.40;5.00;;;;;;;;;;5012530;28;20300;-31
2023/06/21 12:17:18;;;;;;;9.55;6.88;;;;;;;;;;5021221;28;20700;-32
2023/06/21 12:19:45;;;;;;;9.93;4.95;;;;;;;;;;5026676;28;20243;-35
2023/06/21 12:22:14;;;;;;;7.40;4.72;;;;;;;;;;5022610;28;20213;-32
2023/06/21 12:24:41;;;;;;;7.40;5.10;;;;;;;;;;5027649;28;20244;-33
2023/06/21 12:27:13;;;;;;;7.95;5.60;;;;;;;;;;5022475;28;20208;-34
2023/06/21 12:29:47;;;;;;;5.53;4.93;;;;;;;;;;5030026;28;20724;-31
2023/06/21 12:32:14;;;;;;;5.13;4.10;;;;;;;;;;5027132;28;20210;-28
2023/06/21 12:34:43;;;;;;;6.50;4.60;;;;;;;;;;5019829;28;20239;-34
2023/06/21 12:37:10;;;;;;;5.15;4.65;;;;;;;;;;5028055;28;20216;-28
2023/06/21 12:39:39;;;;;;;8.27;5.38;;;;;;;;;;5026596;28;20587;-34
2023/06/21 12:42:07;;;;;;;8.82;5.22;;;;;;;;;;5015739;28;20673;-27
2023/06/21 12:44:34;;;;;;;7.88;5.63;;;;;;;;;;5024513;28;20221;-29
2023/06/21 12:47:02;;;;;;;7.65;5.35;;;;;;;;;;5028964;28;20220;-34
2023/06/21 12:49:29;;;;;;;8.45;5.95;;;;;;;;;;5017932;28;20223;-37
2023/06/21 12:52:02;;;;;;;6.63;5.55;;;;;;;;;;5026853;28;20305;-31
2023/06/21 12:54:29;;;;;;;8.45;5.85;;;;;;;;;;5023616;28;20217;-28
2023/06/21 12:56:58;;;;;;;7.07;5.40;;;;;;;;;;5026228;28;20535;-34
2023/06/21 12:59:26;;;;;;;8.32;5.55;;;;;;;;;;5027678;28;20594;-34
2023/06/21 13:01:55;;;;;;;8.43;5.10;;;;;;;;;;5028335;28;20209;-33
2023/06/21 13:04:22;;;;;;;8.15;5.50;;;;;;;;;;5025858;28;20317;-33
2023/06/21 13:06:49;;;;;;;6.32;5.25;;;;;;;;;;5027082;28;20212;-29
2023/06/21 13:09:18;;;;;;;5.97;4.70;;;;;;;;;;5024889;28;20229;-34
2023/06/21 13:11:45;;;;;;;6.78;5.30;;;;;;;;;;5027664;28;20208;-30
2023/06/21 13:14:13;;;;;;;11.65;5.50;;;;;;;;;;5027836;28;20570;-34
2023/06/21 13:16:40;;;;;;;7.57;5.07;;;;;;;;;;5025105;28;20205;-34
2023/06/21 13:19:07;;;;;;;7.63;5.25;;;;;;;;;;5018902;28;20454;-32
2023/06/21 13:21:36;;;;;;;9.25;6.10;;;;;;;;;;5007744;28;20206;-35
2023/06/21 13:24:03;;;;;;;7.18;5.65;;;;;;;;;;5014894;28;20210;-35
2023/06/21 13:26:31;;;;;;;7.07;5.65;;;;;;;;;;5026137;28;20229;-30
2023/06/21 13:28:58;;;;;;;6.07;4.90;;;;;;;;;;5007542;28;20225;-30
2023/06/21 13:31:26;;;;;;;5.30;4.70;;;;;;;;;;5007750;28;20284;-31
2023/06/21 13:33:53;;;;;;;5.90;5.30;;;;;;;;;;5018557;28;20210;-32
2023/06/21 13:36:20;;;;;;;6.45;4.63;;;;;;;;;;5018159;28;20230;-37
2023/06/21 13:38:47;;;;;;;6.20;5.03;;;;;;;;;;5021139;28;20245;-35
2023/06/21 13:41:14;;;;;;;8.88;5.45;;;;;;;;;;5024566;28;20205;-30
2023/06/21 13:43:44;;;;;;;5.95;5.35;;;;;;;;;;5018841;28;20208;-29
2023/06/21 13:46:11;;;;;;;6.93;5.22;;;;;;;;;;5026530;28;20230;-34
2023/06/21 13:48:38;;;;;;;6.72;4.80;;;;;;;;;;5014941;28;20222;-30
2023/06/21 13:51:05;;;;;;;7.95;5.35;;;;;;;;;;5022499;28;20203;-33
2023/06/21 13:53:32;;;;;;;6.68;4.90;;;;;;;;;;5010051;28;20205;-36
2023/06/21 13:55:59;;;;;;;7.15;5.10;;;;;;;;;;5024905;28;20202;-34
2023/06/21 13:58:26;;;;;;;9.20;5.88;;;;;;;;;;5026415;28;20224;-34
2023/06/21 14:00:55;;;;;;;6.93;5.00;;;;;;;;;;5026700;28;20208;-34
2023/06/21 14:03:22;;;;;;;6.70;4.78;;;;;;;;;;5024674;28;20210;-28
2023/06/21 14:05:49;;;;;;;5.07;4.57;;;;;;;;;;5023885;28;20222;-28
2023/06/21 14:08:16;;;;;;;5.20;4.75;;;;;;;;;;5017036;28;20214;-34
2023/06/21 14:10:44;;;;;;;7.05;4.78;;;;;;;;;;5023216;28;20529;-32
2023/06/21 14:15:39;;;;;;;6.47;4.75;;;;;;;;;;5046290;28;20230;-39
2023/06/21 14:18:09;;;;;;;6.25;5.10;;;;;;;;;;5036965;28;20202;-40
2023/06/21 14:20:36;;;;;;;6.82;4.75;;;;;;;;;;5021306;28;20199;-35
2023/06/21 14:23:03;;;;;;;6.72;4.97;;;;;;;;;;5004474;28;20515;-36
2023/06/21 14:25:31;;;;;;;7.40;4.43;;;;;;;;;;5016620;28;20752;-37
2023/06/21 14:27:58;;;;;;;10.02;5.68;;;;;;;;;;5009494;28;20199;-36
2023/06/21 14:30:25;;;;;;;5.70;4.97;;;;;;;;;;5010089;28;20216;-38
2023/06/21 14:32:53;;;;;;;7.50;5.25;;;;;;;;;;5023163;28;20209;-39
2023/06/21 14:35:21;;;;;;;5.45;4.90;;;;;;;;;;5015708;28;20203;-39
2023/06/21 14:37:49;;;;;;;7.35;5.70;;;;;;;;;;5008800;28;20203;-34
2023/06/21 14:40:17;;;;;;;5.38;4.55;;;;;;;;;;5011487;28;20233;-35
2023/06/21 14:42:44;;;;;;;5.43;4.68;;;;;;;;;;5010573;28;20212;-33
2023/06/21 14:45:11;;;;;;;5.97;5.10;;;;;;;;;;5029551;28;20566;-37
2023/06/21 14:47:38;;;;;;;7.07;5.50;;;;;;;;;;5028162;28;20292;-37
2023/06/21 14:50:06;;;;;;;6.70;4.70;;;;;;;;;;5019136;28;20229;-33
2023/06/21 14:52:34;;;;;;;6.30;5.13;;;;;;;;;;5021466;28;20206;-40